createdAt,value
2018-08-10T00:02:12.296Z,97525.30
2018-08-10T00:04:51.189Z,97521.30
2018-08-10T00:07:27.291Z,97526.28
2018-08-10T00:12:46.005Z,97535.77
2018-08-10T00:15:28.964Z,97536.36
2018-08-10T00:18:09.565Z,97538.38
2018-08-10T00:20:53.300Z,97543.51
2018-08-10T00:23:32.738Z,97552.83
2018-08-10T00:26:08.757Z,97553.94
2018-08-10T00:28:44.351Z,97558.40
2018-08-10T00:34:14.746Z,97554.92
2018-08-10T00:36:43.703Z,97554.86
2018-08-10T00:39:14.570Z,97563.19
2018-08-10T00:41:44.364Z,97556.67
2018-08-10T00:44:13.296Z,97556.99
2018-08-10T00:46:42.851Z,97561.08
2018-08-10T00:49:12.432Z,97561.05
2018-08-10T00:51:41.255Z,97557.80
2018-08-10T00:54:10.044Z,97554.62
2018-08-10T00:56:39.008Z,97556.27
2018-08-10T00:59:40.290Z,97559.45
2018-08-10T01:02:09.099Z,97552.99
2018-08-10T01:04:38.031Z,97556.70
2018-08-10T01:07:07.151Z,97560.25
2018-08-10T01:09:35.988Z,97558.31
2018-08-10T01:12:04.836Z,97570.78
2018-08-10T01:14:33.818Z,97574.53
2018-08-10T01:17:02.698Z,97573.20
2018-08-10T01:19:31.577Z,97572.93
2018-08-10T01:22:00.457Z,97574.82
2018-08-10T01:24:29.310Z,97568.39
2018-08-10T01:26:58.108Z,97577.80
2018-08-10T01:29:27.036Z,97569.74
2018-08-10T01:31:55.910Z,97571.39
2018-08-10T01:34:24.883Z,97562.28
2018-08-10T01:36:53.824Z,97566.58
2018-08-10T01:39:22.776Z,97560.41
2018-08-10T01:41:51.672Z,97560.16
2018-08-10T01:44:20.560Z,97555.55
2018-08-10T01:46:49.497Z,97553.61
2018-08-10T01:49:18.352Z,97554.93
2018-08-10T01:51:51.104Z,97551.71
2018-08-10T01:54:20.062Z,97552.09
2018-08-10T01:56:48.944Z,97554.52
2018-08-10T01:59:17.898Z,97552.07
2018-08-10T02:01:46.952Z,97556.06
2018-08-10T02:04:15.920Z,97547.98
2018-08-10T02:09:19.024Z,97548.36
2018-08-10T02:11:47.934Z,97545.97
2018-08-10T02:14:16.830Z,97546.77
2018-08-10T02:16:45.799Z,97548.09
2018-08-10T02:19:14.818Z,97552.14
2018-08-10T02:24:19.496Z,97561.55
2018-08-10T02:26:48.513Z,97557.23
2018-08-10T02:29:17.984Z,97560.16
2018-08-10T02:31:47.407Z,97569.61
2018-08-10T02:34:16.904Z,97572.30
2018-08-10T02:36:45.801Z,97571.76
2018-08-10T02:39:14.722Z,97569.89
2018-08-10T02:41:43.798Z,97575.80
2018-08-10T02:44:12.715Z,97568.30
2018-08-10T02:46:41.565Z,97570.17
2018-08-10T02:49:10.472Z,97573.11
2018-08-10T02:51:39.230Z,97567.73
2018-08-10T02:54:08.089Z,97572.05
2018-08-10T02:56:37.318Z,97570.95
2018-08-10T02:59:06.566Z,97572.02
2018-08-10T03:01:35.439Z,97572.02
2018-08-10T03:04:04.405Z,97573.94
2018-08-10T03:06:33.289Z,97574.45
2018-08-10T03:09:02.184Z,97581.70
2018-08-10T03:11:31.230Z,97588.69
2018-08-10T03:14:01.152Z,97595.95
2018-08-10T03:16:30.079Z,97593.27
2018-08-10T03:18:59.011Z,97601.87
2018-08-10T03:24:05.842Z,97598.11
2018-08-10T03:26:34.882Z,97598.90
2018-08-10T03:29:03.752Z,97606.42
2018-08-10T03:31:33.292Z,97612.06
2018-08-10T03:34:02.354Z,97621.45
2018-08-10T03:36:32.139Z,97623.06
2018-08-10T03:41:37.631Z,97635.67
2018-08-10T03:44:08.226Z,97634.88
2018-08-10T03:46:38.125Z,97644.81
2018-08-10T03:49:07.296Z,97644.83
2018-08-10T03:51:37.216Z,97649.32
2018-08-10T03:54:06.799Z,97650.66
2018-08-10T03:56:35.998Z,97652.83
2018-08-10T03:59:05.121Z,97652.62
2018-08-10T04:01:34.873Z,97659.34
2018-08-10T04:04:03.858Z,97667.95
2018-08-10T04:06:33.417Z,97673.04
2018-08-10T04:09:02.466Z,97674.09
2018-08-10T04:11:32.440Z,97678.66
2018-08-10T04:16:43.182Z,97683.42
2018-08-10T04:19:12.183Z,97683.16
2018-08-10T04:21:41.608Z,97677.52
2018-08-10T04:26:45.990Z,97686.22
2018-08-10T04:29:15.897Z,97688.38
2018-08-10T04:31:44.955Z,97691.36
2018-08-10T04:34:14.169Z,97689.52
2018-08-10T04:36:44.324Z,97691.37
2018-08-10T04:39:18.073Z,97697.78
2018-08-10T04:41:47.943Z,97701.56
2018-08-10T04:44:17.360Z,97698.87
2018-08-10T04:46:47.289Z,97705.31
2018-08-10T04:49:17.328Z,97709.13
2018-08-10T04:51:46.988Z,97719.08
2018-08-10T04:54:17.777Z,97722.03
2018-08-10T04:56:48.303Z,97724.17
2018-08-10T04:59:19.016Z,97722.83
2018-08-10T05:01:49.792Z,97723.03
2018-08-10T05:04:21.306Z,97724.68
2018-08-10T05:06:50.259Z,97727.31
2018-08-10T05:09:19.920Z,97728.30
2018-08-10T05:11:49.484Z,97734.20
2018-08-10T05:14:22.441Z,97736.31
2018-08-10T05:16:52.159Z,97732.90
2018-08-10T05:19:21.047Z,97735.00
2018-08-10T05:21:49.976Z,97738.09
2018-08-10T05:24:19.427Z,97736.64
2018-08-10T05:26:48.457Z,97738.22
2018-08-10T05:29:18.852Z,97742.41
2018-08-10T05:31:48.925Z,97747.42
2018-08-10T05:34:19.278Z,97757.09
2018-08-10T05:36:49.365Z,97755.78
2018-08-10T05:39:18.226Z,97759.20
2018-08-10T05:41:47.622Z,97764.42
2018-08-10T05:44:17.420Z,97765.55
2018-08-10T05:46:47.390Z,97767.78
2018-08-10T05:49:18.992Z,97772.33
2018-08-10T05:51:49.543Z,97773.05
2018-08-10T05:54:19.184Z,97774.35
2018-08-10T05:56:50.028Z,97777.33
2018-08-10T05:59:19.507Z,97776.23
2018-08-10T06:01:48.393Z,97778.75
2018-08-10T06:04:18.881Z,97774.03
2018-08-10T06:06:49.248Z,97782.15
2018-08-10T06:09:18.734Z,97784.69
2018-08-10T06:11:49.233Z,97786.19
2018-08-10T06:14:18.979Z,97790.73
2018-08-10T06:16:48.019Z,97792.17
2018-08-10T06:19:17.834Z,97812.09
2018-08-10T06:21:47.107Z,97809.22
2018-08-10T06:24:18.154Z,97810.78
2018-08-10T06:26:47.313Z,97817.39
2018-08-10T06:29:17.315Z,97811.04
2018-08-10T06:31:46.762Z,97817.82
2018-08-10T06:34:15.752Z,97829.13
2018-08-10T06:36:48.343Z,97830.02
2018-08-10T06:39:18.774Z,97834.23
2018-08-10T06:41:48.436Z,97838.34
2018-08-10T06:44:18.808Z,97832.94
2018-08-10T06:46:48.547Z,97826.48
2018-08-10T06:49:18.938Z,97829.21
2018-08-10T06:51:50.089Z,97833.81
2018-08-10T06:56:55.960Z,97833.67
2018-08-10T06:59:25.946Z,97842.00
2018-08-10T07:01:55.388Z,97842.89
2018-08-10T07:04:26.727Z,97848.16
2018-08-10T07:06:55.833Z,97850.14
2018-08-10T07:09:25.572Z,97850.39
2018-08-10T07:11:54.509Z,97851.53
2018-08-10T07:14:23.331Z,97853.03
2018-08-10T07:16:52.188Z,97855.05
2018-08-10T07:19:21.428Z,97862.11
2018-08-10T07:21:53.539Z,97859.03
2018-08-10T07:24:24.180Z,97859.98
2018-08-10T07:26:55.832Z,97861.59
2018-08-10T07:29:25.949Z,97862.83
2018-08-10T07:31:57.617Z,97864.99
2018-08-10T07:34:27.280Z,97864.34
2018-08-10T07:36:57.285Z,97858.03
2018-08-10T07:39:26.590Z,97866.86
2018-08-10T07:41:57.211Z,97866.50
2018-08-10T07:44:26.611Z,97869.11
2018-08-10T07:46:56.490Z,97868.55
2018-08-10T07:49:25.325Z,97869.39
2018-08-10T07:51:54.745Z,97871.02
2018-08-10T07:54:23.516Z,97874.78
2018-08-10T07:56:52.520Z,97861.39
2018-08-10T07:59:21.393Z,97862.88
2018-08-10T08:01:50.825Z,97865.22
2018-08-10T08:04:23.168Z,97866.36
2018-08-10T08:06:51.897Z,97862.55
2018-08-10T08:09:20.760Z,97864.39
2018-08-10T08:11:49.604Z,97868.81
2018-08-10T08:14:18.510Z,97870.70
2018-08-10T08:16:47.469Z,97872.31
2018-08-10T08:19:16.308Z,97865.88
2018-08-10T08:21:56.226Z,97859.15
2018-08-10T08:24:25.234Z,97855.13
2018-08-10T08:26:54.116Z,97853.77
2018-08-10T08:29:22.978Z,97856.90
2018-08-10T08:31:51.725Z,97854.55
2018-08-10T08:34:20.456Z,97854.66
2018-08-10T08:36:49.218Z,97854.36
2018-08-10T08:40:26.855Z,97854.22
2018-08-10T08:42:55.667Z,97849.16
2018-08-10T08:45:38.885Z,97852.50
2018-08-10T08:48:07.748Z,97857.18
2018-08-10T08:50:39.144Z,97855.82
2018-08-10T08:53:08.140Z,97860.71
2018-08-10T08:55:39.921Z,97858.08
2018-08-10T08:58:09.379Z,97860.13
2018-08-10T09:00:38.252Z,97864.54
2018-08-10T09:03:10.421Z,97868.06
2018-08-10T09:05:39.187Z,97862.05
2018-08-10T09:08:08.258Z,97866.59
2018-08-10T09:10:38.009Z,97862.09
2018-08-10T09:13:06.829Z,97874.99
2018-08-10T09:15:35.595Z,97873.21
2018-08-10T09:20:39.438Z,97880.98
2018-08-10T09:23:08.882Z,97871.24
2018-08-10T09:25:37.691Z,97875.66
2018-08-10T09:28:06.485Z,97876.40
2018-08-10T09:30:35.260Z,97875.84
2018-08-10T09:33:04.346Z,97871.59
2018-08-10T09:35:33.228Z,97876.19
2018-08-10T09:38:02.145Z,97867.95
2018-08-10T09:40:31.009Z,97875.54
2018-08-10T09:42:59.820Z,97876.05
2018-08-10T09:45:28.748Z,97872.46
2018-08-10T09:47:57.660Z,97879.42
2018-08-10T09:50:26.551Z,97870.88
2018-08-10T09:53:11.781Z,97871.97
2018-08-10T09:55:41.882Z,97871.74
2018-08-10T09:58:15.976Z,97872.07
2018-08-10T10:00:50.696Z,97871.17
2018-08-10T10:03:21.921Z,97874.36
2018-08-10T10:05:51.876Z,97874.20
2018-08-10T10:08:21.426Z,97878.02
2018-08-10T10:10:51.304Z,97877.98
2018-08-10T10:13:20.127Z,97875.16
2018-08-10T10:15:49.585Z,97874.36
2018-08-10T10:18:18.905Z,97871.55
2018-08-10T10:20:48.344Z,97873.00
2018-08-10T10:23:17.584Z,97870.11
2018-08-10T10:25:46.408Z,97867.00
2018-08-10T10:28:15.596Z,97875.75
2018-08-10T10:30:44.645Z,97874.81
2018-08-10T10:33:13.546Z,97868.41
2018-08-10T10:35:42.322Z,97872.67
2018-08-10T10:38:11.140Z,97861.77
2018-08-10T10:40:39.908Z,97860.75
2018-08-10T10:43:08.634Z,97860.14
2018-08-10T10:45:38.226Z,97855.95
2018-08-10T10:48:11.278Z,97852.67
2018-08-10T10:50:40.060Z,97851.48
2018-08-10T10:53:08.918Z,97846.94
2018-08-10T10:55:37.875Z,97851.50
2018-08-10T10:58:06.732Z,97850.61
2018-08-10T11:00:35.714Z,97851.55
2018-08-10T11:03:04.917Z,97855.45
2018-08-10T11:05:33.835Z,97846.75
2018-08-10T11:08:02.691Z,97846.47
2018-08-10T11:10:31.470Z,97851.67
2018-08-10T11:13:00.332Z,97850.02
2018-08-10T11:15:30.156Z,97852.41
2018-08-10T11:17:59.116Z,97850.64
2018-08-10T11:20:27.887Z,97851.53
2018-08-10T11:22:56.695Z,97848.71
2018-08-10T11:25:25.887Z,97855.77
2018-08-10T11:27:54.828Z,97842.80
2018-08-10T11:30:23.712Z,97842.74
2018-08-10T11:32:52.483Z,97836.98
2018-08-10T11:35:21.293Z,97838.02
2018-08-10T11:37:50.332Z,97838.64
2018-08-10T11:40:22.066Z,97828.63
2018-08-10T11:42:51.304Z,97832.27
2018-08-10T11:45:22.813Z,97828.78
2018-08-10T11:47:51.599Z,97829.05
2018-08-10T11:50:25.454Z,97832.34
2018-08-10T11:52:54.295Z,97827.00
2018-08-10T11:55:24.550Z,97834.59
2018-08-10T11:57:54.587Z,97839.77
2018-08-10T12:00:23.408Z,97837.67
2018-08-10T12:02:52.215Z,97830.48
2018-08-10T12:05:21.672Z,97822.45
2018-08-10T12:07:51.681Z,97817.98
2018-08-10T12:10:22.655Z,97826.77
2018-08-10T12:12:51.885Z,97831.50
2018-08-10T12:15:21.766Z,97836.00
2018-08-10T12:17:55.324Z,97823.46
2018-08-10T12:20:24.106Z,97813.38
2018-08-10T12:22:53.813Z,97810.61
2018-08-10T12:25:22.649Z,97814.18
2018-08-10T12:27:51.715Z,97808.52
2018-08-10T12:30:21.698Z,97812.22
2018-08-10T12:32:50.459Z,97803.64
2018-08-10T12:35:19.552Z,97793.70
2018-08-10T12:37:48.508Z,97797.43
2018-08-10T12:40:17.438Z,97792.79
2018-08-10T12:42:46.585Z,97787.33
2018-08-10T12:45:15.498Z,97782.95
2018-08-10T12:47:44.454Z,97779.33
2018-08-10T12:50:13.273Z,97773.23
2018-08-10T12:52:42.149Z,97778.48
2018-08-10T12:55:11.354Z,97779.97
2018-08-10T12:57:40.444Z,97785.06
2018-08-10T13:00:11.585Z,97796.82
2018-08-10T13:02:40.645Z,97799.36
2018-08-10T13:05:09.868Z,97790.09
2018-08-10T13:07:39.515Z,97807.70
2018-08-10T13:10:10.288Z,97817.44
2018-08-10T13:12:39.134Z,97831.25
2018-08-10T13:15:09.616Z,97839.77
2018-08-10T13:17:39.740Z,97853.88
2018-08-10T13:20:11.097Z,97860.84
2018-08-10T13:22:40.887Z,97868.03
2018-08-10T13:25:11.003Z,97864.12
2018-08-10T13:27:40.101Z,97868.42
2018-08-10T13:30:10.653Z,97887.00
2018-08-10T13:32:39.499Z,97901.42
2018-08-10T13:35:08.527Z,97879.45
2018-08-10T13:37:37.481Z,97886.69
2018-08-10T13:40:06.417Z,97911.27
2018-08-10T13:42:35.310Z,97932.54
2018-08-10T13:45:06.342Z,97944.69
2018-08-10T13:47:36.156Z,97949.75
2018-08-10T13:50:07.326Z,97955.59
2018-08-10T13:52:37.153Z,97971.82
2018-08-10T13:55:06.383Z,97969.59
2018-08-10T13:57:35.344Z,97963.12
2018-08-10T14:00:05.299Z,97969.72
2018-08-10T14:02:34.462Z,97980.48
2018-08-10T14:05:05.182Z,97983.25
2018-08-10T14:07:34.116Z,97972.77
2018-08-10T14:10:03.006Z,97966.28
2018-08-10T14:12:32.537Z,97964.38
2018-08-10T14:15:01.470Z,97952.98
2018-08-10T14:17:30.768Z,97943.34
2018-08-10T14:19:59.726Z,97944.83
2018-08-10T14:22:28.472Z,97941.69
2018-08-10T14:24:57.296Z,97937.81
2018-08-10T14:27:32.695Z,97935.98
2018-08-10T14:30:03.564Z,97935.16
2018-08-10T14:32:34.286Z,97929.80
2018-08-10T14:35:06.335Z,97927.91
2018-08-10T14:37:38.417Z,97914.67
2018-08-10T14:40:11.736Z,97917.34
2018-08-10T14:42:42.878Z,97912.66
2018-08-10T14:45:15.516Z,97915.35
2018-08-10T14:47:47.578Z,97917.73
2018-08-10T14:50:16.501Z,97921.83
2018-08-10T14:52:49.170Z,97932.30
2018-08-10T14:55:19.309Z,97923.47
2018-08-10T14:57:49.568Z,97916.03
2018-08-10T15:00:19.965Z,97918.02
2018-08-10T15:02:49.084Z,97912.84
2018-08-10T15:05:18.408Z,97908.11
2018-08-10T15:07:47.287Z,97904.31
2018-08-10T15:10:17.071Z,97899.17
2018-08-10T15:12:46.668Z,97908.91
2018-08-10T15:15:17.737Z,97912.00
2018-08-10T15:17:47.141Z,97902.55
2018-08-10T15:20:19.571Z,97890.00
2018-08-10T15:22:49.193Z,97883.20
2018-08-10T15:25:18.038Z,97876.33
2018-08-10T15:27:46.937Z,97877.42
2018-08-10T15:30:17.683Z,97884.78
2018-08-10T15:32:46.630Z,97879.36
2018-08-10T15:35:16.822Z,97870.84
2018-08-10T15:37:46.285Z,97880.33
2018-08-10T15:40:17.693Z,97880.92
2018-08-10T15:42:46.999Z,97886.67
2018-08-10T15:45:16.863Z,97891.35
2018-08-10T15:47:46.437Z,97888.67
2018-08-10T15:50:15.585Z,97880.83
2018-08-10T15:52:45.600Z,97874.47
2018-08-10T15:55:15.801Z,97874.72
2018-08-10T15:57:44.764Z,97889.39
2018-08-10T16:00:21.062Z,97891.91
2018-08-10T16:02:50.007Z,97888.75
2018-08-10T16:05:18.923Z,97891.80
2018-08-10T16:10:22.823Z,97875.39
2018-08-10T16:12:51.661Z,97878.11
2018-08-10T16:15:20.490Z,97880.23
2018-08-10T16:17:49.778Z,97875.91
2018-08-10T16:20:21.543Z,97879.45
2018-08-10T16:22:51.257Z,97888.33
2018-08-10T16:25:20.159Z,97891.81
2018-08-10T16:27:48.977Z,97893.43
2018-08-10T16:32:52.220Z,97888.25
2018-08-10T16:35:21.205Z,97893.94
2018-08-10T16:37:53.970Z,97885.36
2018-08-10T16:40:22.825Z,97877.55
2018-08-10T16:42:51.686Z,97864.88
2018-08-10T16:45:20.546Z,97878.91
2018-08-10T16:47:49.382Z,97900.95
2018-08-10T16:50:19.393Z,97904.44
2018-08-10T16:52:48.398Z,97897.75
2018-08-10T16:55:20.267Z,97893.72
2018-08-10T16:57:49.848Z,97892.09
2018-08-10T17:00:21.000Z,97896.94
2018-08-10T17:02:49.995Z,97906.09
2018-08-10T17:05:18.964Z,97917.94
2018-08-10T17:07:47.852Z,97917.11
2018-08-10T17:10:16.751Z,97911.98
2018-08-10T17:12:46.007Z,97907.45
2018-08-10T17:15:16.839Z,97902.88
2018-08-10T17:17:46.417Z,97898.28
2018-08-10T17:20:15.935Z,97916.56
2018-08-10T17:22:46.165Z,97932.74
2018-08-10T17:25:16.493Z,97955.61
2018-08-10T17:27:45.347Z,97952.05
2018-08-10T17:30:15.834Z,97952.46
2018-08-10T17:32:44.728Z,97953.86
2018-08-10T17:35:14.801Z,97949.20
2018-08-10T17:40:21.341Z,97942.59
2018-08-10T17:42:50.844Z,97935.14
2018-08-10T17:45:20.186Z,97911.29
2018-08-10T17:47:49.102Z,97897.81
2018-08-10T17:50:19.694Z,97886.05
2018-08-10T17:55:26.089Z,97886.52
2018-08-10T17:57:54.879Z,97902.84
2018-08-10T18:00:26.380Z,97907.38
2018-08-10T18:02:55.358Z,97912.72
2018-08-10T18:05:30.869Z,97904.89
2018-08-10T18:08:02.962Z,97903.20
2018-08-10T18:10:39.061Z,97901.23
2018-08-10T18:13:07.907Z,97905.86
2018-08-10T18:15:36.762Z,97901.95
2018-08-10T18:18:05.680Z,97906.05
2018-08-10T18:20:34.559Z,97907.38
2018-08-10T18:23:03.517Z,97900.68
2018-08-10T18:25:32.381Z,97903.52
2018-08-10T18:28:01.258Z,97912.53
2018-08-10T18:30:30.218Z,97918.89
2018-08-10T18:32:59.137Z,97912.14
2018-08-10T18:35:28.073Z,97919.53
2018-08-10T18:37:56.919Z,97924.09
2018-08-10T18:40:25.860Z,97920.92
2018-08-10T18:43:03.380Z,97925.90
2018-08-10T18:45:39.310Z,97929.29
2018-08-10T18:48:13.625Z,97939.73
2018-08-10T18:50:44.762Z,97933.31
2018-08-10T18:53:14.057Z,97933.96
2018-08-10T18:55:43.953Z,97942.01
2018-08-10T18:58:15.318Z,97948.34
2018-08-10T19:00:44.894Z,97950.19
2018-08-10T19:03:13.988Z,97950.00
2018-08-10T19:05:45.545Z,97948.66
2018-08-10T19:08:14.576Z,97952.07
2018-08-10T19:10:44.408Z,97953.95
2018-08-10T19:13:14.102Z,97962.73
2018-08-10T19:15:44.065Z,97956.48
2018-08-10T19:20:54.793Z,97957.73
2018-08-10T19:23:27.169Z,97958.05
2018-08-10T19:25:56.641Z,97962.59
2018-08-10T19:28:25.510Z,97963.61
2018-08-10T19:30:55.285Z,97962.88
2018-08-10T19:33:29.588Z,97952.22
2018-08-10T19:36:01.587Z,97960.06
2018-08-10T19:38:33.045Z,97958.94
2018-08-10T19:41:02.531Z,97963.17
2018-08-10T19:43:31.498Z,97965.03
2018-08-10T19:46:00.328Z,97959.44
2018-08-10T19:48:29.591Z,97966.91
2018-08-10T19:50:58.541Z,97961.27
2018-08-10T19:53:30.892Z,97963.77
2018-08-10T19:55:59.927Z,97962.27
2018-08-10T19:58:28.860Z,97964.35
2018-08-10T20:00:57.799Z,97957.13
2018-08-10T20:03:26.816Z,97967.61
2018-08-10T20:05:55.702Z,97976.23
2018-08-10T20:08:24.614Z,97970.41
2018-08-10T20:10:53.481Z,97966.80
2018-08-10T20:13:22.480Z,97963.58
2018-08-10T20:15:51.556Z,97965.78
2018-08-10T20:18:21.066Z,97970.58
2018-08-10T20:20:51.391Z,97973.53
2018-08-10T20:23:22.702Z,97973.63
2018-08-10T20:25:52.567Z,97982.11
2018-08-10T20:28:21.430Z,97998.80
2018-08-10T20:30:51.816Z,98015.72
2018-08-10T20:33:22.176Z,98027.56
2018-08-10T20:35:52.647Z,98043.16
2018-08-10T20:38:21.632Z,98054.45
2018-08-10T20:40:51.245Z,98068.64
2018-08-10T20:43:20.018Z,98065.06
2018-08-10T20:45:49.631Z,98062.50
2018-08-10T20:48:18.519Z,98055.08
2018-08-10T20:50:47.387Z,98051.25
2018-08-10T20:53:16.176Z,98049.80
2018-08-10T20:55:44.946Z,98040.77
2018-08-10T21:00:48.332Z,98047.16
2018-08-10T21:03:17.157Z,98042.97
2018-08-10T21:05:45.919Z,98033.92
2018-08-10T21:08:15.028Z,98024.19
2018-08-10T21:10:43.928Z,98016.16
2018-08-10T21:13:12.707Z,98011.77
2018-08-10T21:15:41.567Z,98012.43
2018-08-10T21:18:10.414Z,98011.75
2018-08-10T21:20:39.205Z,98007.98
2018-08-10T21:23:09.840Z,98017.44
2018-08-10T21:25:39.199Z,98019.67
2018-08-10T21:28:08.266Z,98022.25
2018-08-10T21:30:37.192Z,98031.88
2018-08-10T21:33:06.069Z,98037.33
2018-08-10T21:35:36.222Z,98048.53
2018-08-10T21:38:05.115Z,98042.30
2018-08-10T21:40:34.080Z,98022.36
2018-08-10T21:43:03.013Z,98013.88
2018-08-10T21:45:31.881Z,98022.67
2018-08-10T21:48:01.592Z,98017.73
2018-08-10T21:50:31.106Z,98021.14
2018-08-10T21:53:01.991Z,98026.76
2018-08-10T21:55:31.580Z,98031.78
2018-08-10T21:58:01.679Z,98031.91
2018-08-10T22:00:40.120Z,98038.38
2018-08-10T22:03:10.491Z,98042.46
2018-08-10T22:05:40.136Z,98040.34
2018-08-10T22:08:09.014Z,98033.78
2018-08-10T22:10:37.906Z,98040.08
2018-08-10T22:13:07.175Z,98039.48
2018-08-10T22:15:41.279Z,98039.09
2018-08-10T22:18:15.424Z,98045.68
2018-08-10T22:20:44.581Z,98045.89
2018-08-10T22:23:13.598Z,98045.23
2018-08-10T22:25:42.559Z,98053.22
2018-08-10T22:28:12.126Z,98056.39
2018-08-10T22:30:41.541Z,98067.90
2018-08-10T22:33:10.604Z,98072.68
2018-08-10T22:35:39.696Z,98067.58
2018-08-10T22:38:08.599Z,98069.48
2018-08-10T22:40:37.503Z,98065.25
2018-08-10T22:43:06.781Z,98072.20
2018-08-10T22:45:35.740Z,98075.19
2018-08-10T22:48:04.772Z,98069.06
2018-08-10T22:50:34.397Z,98060.70
2018-08-10T22:53:03.910Z,98065.70
2018-08-10T22:55:33.025Z,98069.56
2018-08-10T22:58:02.161Z,98072.37
2018-08-10T23:00:31.057Z,98080.92
2018-08-10T23:03:00.297Z,98076.80
2018-08-10T23:05:29.292Z,98086.59
2018-08-10T23:07:58.176Z,98088.44
2018-08-10T23:10:27.103Z,98087.77
2018-08-10T23:12:55.960Z,98075.86
2018-08-10T23:15:24.898Z,98050.48
2018-08-10T23:17:53.711Z,98042.35
2018-08-10T23:20:22.689Z,98053.26
2018-08-10T23:22:51.511Z,98050.11
2018-08-10T23:25:20.301Z,98045.39
2018-08-10T23:27:52.996Z,98047.30
2018-08-10T23:30:22.936Z,98054.18
2018-08-10T23:32:51.793Z,98059.15
2018-08-10T23:35:20.639Z,98043.01
2018-08-10T23:37:50.166Z,98038.58
2018-08-10T23:40:19.029Z,98037.94
2018-08-10T23:42:49.148Z,98030.78
2018-08-10T23:45:18.085Z,98027.30
2018-08-10T23:47:46.913Z,98027.27
2018-08-10T23:50:17.116Z,98033.69
2018-08-10T23:52:46.384Z,98021.33
2018-08-10T23:55:17.964Z,98018.07
2018-08-10T23:57:46.908Z,98015.47
